Time;durP1;ratioP1;P1;durP2;ratioP2;P2;SDS_P1;SDS_P2;PMS_P1;PMS_P2;Temp;Humidity;BMP_temperature;BMP_pressure;BME280_temperature;BME280_humidity;BME280_pressure;Samples;Min_cycle;Max_cycle;Signal;HPM_P1;HPM_P2
2021/06/24 05:56:04;;;;;;;21.12;4.90;;;;;;;24.14;72.60;98226.52;1888791;76;22208;-61
2021/06/24 05:58:31;;;;;;;14.70;5.03;;;;;;;24.16;72.17;98224.80;1858733;77;21021;-61
2021/06/24 06:00:59;;;;;;;14.63;4.58;;;;;;;24.23;70.71;98222.94;1861795;77;21442;-62
2021/06/24 06:03:26;;;;;;;13.98;4.33;;;;;;;24.32;69.90;98231.63;1858989;77;20911;-61
2021/06/24 06:05:53;;;;;;;14.53;4.25;;;;;;;24.43;69.46;98225.68;1832357;77;21106;-62
2021/06/24 06:08:22;;;;;;;12.13;4.15;;;;;;;24.57;68.95;98226.98;1775983;80;20956;-62
2021/06/24 06:10:50;;;;;;;17.05;4.25;;;;;;;24.72;68.18;98225.96;1818857;78;20979;-62
2021/06/24 06:13:18;;;;;;;16.82;4.58;;;;;;;24.85;66.73;98227.27;1820671;78;21244;-61
2021/06/24 06:15:52;;;;;;;16.50;4.45;;;;;;;24.97;66.14;98221.52;1791107;80;21018;-62
2021/06/24 06:18:20;;;;;;;21.33;4.92;;;;;;;25.09;65.87;98217.11;1787056;80;20955;-62
2021/06/24 06:20:48;;;;;;;16.35;5.10;;;;;;;25.18;65.89;98210.72;1811767;79;21519;-61
2021/06/24 06:23:16;;;;;;;17.25;5.12;;;;;;;25.28;66.07;98215.50;1807976;79;20926;-62
2021/06/24 06:25:44;;;;;;;15.20;4.75;;;;;;;25.40;66.38;98219.30;1804839;79;21653;-61
2021/06/24 06:28:13;;;;;;;17.02;4.90;;;;;;;25.50;66.47;98217.25;1797174;79;21049;-62
2021/06/24 06:30:41;;;;;;;20.48;4.90;;;;;;;25.60;66.92;98215.13;1773177;79;21531;-65
2021/06/24 06:33:09;;;;;;;13.62;4.03;;;;;;;25.74;66.25;98216.58;1791668;79;20951;-61
2021/06/24 06:35:36;;;;;;;15.78;4.25;;;;;;;25.86;65.49;98216.86;1815740;78;21519;-62
2021/06/24 06:38:03;;;;;;;19.12;4.40;;;;;;;25.96;65.03;98220.22;1822188;78;21087;-62
2021/06/24 06:40:30;;;;;;;16.80;4.83;;;;;;;26.07;64.56;98223.02;1804873;78;21069;-61
2021/06/24 06:42:58;;;;;;;15.00;3.98;;;;;;;26.14;64.30;98210.14;1797065;79;20966;-62
2021/06/24 06:45:27;;;;;;;15.55;4.65;;;;;;;26.25;64.20;98204.67;1797394;79;21047;-63
2021/06/24 06:47:54;;;;;;;25.20;4.65;;;;;;;26.36;63.91;98206.84;1797419;79;20915;-62
2021/06/24 06:50:23;;;;;;;20.48;3.90;;;;;;;26.45;63.25;98197.06;1796893;79;21197;-62
2021/06/24 06:52:51;;;;;;;20.72;3.95;;;;;;;26.56;62.72;98201.22;1807048;78;21027;-61
2021/06/24 06:55:18;;;;;;;20.48;4.33;;;;;;;26.66;62.51;98197.70;1782513;80;21448;-63
2021/06/24 06:57:48;;;;;;;18.90;4.10;;;;;;;26.77;62.56;98192.23;1846513;77;20937;-62
2021/06/24 07:00:17;;;;;;;17.15;4.40;;;;;;;26.88;62.43;98199.31;1836703;77;21332;-62
2021/06/24 07:02:44;;;;;;;13.38;4.47;;;;;;;26.97;62.44;98194.78;1836310;77;21478;-61
2021/06/24 07:05:14;;;;;;;15.78;4.53;;;;;;;27.04;61.95;98196.16;1835730;77;20877;-63
2021/06/24 07:07:41;;;;;;;24.98;4.55;;;;;;;27.11;62.01;98204.40;1833815;77;21556;-61
2021/06/24 07:10:10;;;;;;;15.48;3.60;;;;;;;27.19;62.24;98202.44;1834456;77;20995;-61
2021/06/24 07:12:37;;;;;;;20.15;3.87;;;;;;;27.27;61.75;98206.76;1818011;77;21058;-63
2021/06/24 07:15:06;;;;;;;20.08;4.28;;;;;;;27.34;61.55;98201.25;1813762;79;21786;-62
2021/06/24 07:17:34;;;;;;;21.93;4.10;;;;;;;27.42;61.29;98204.20;1814225;79;21579;-63
2021/06/24 07:20:00;;;;;;;21.23;4.05;;;;;;;27.52;61.48;98206.94;1814186;78;21050;-62
2021/06/24 07:22:27;;;;;;;21.17;4.42;;;;;;;27.64;60.73;98211.23;1827476;77;21487;-63
2021/06/24 07:24:54;;;;;;;19.80;4.20;;;;;;;27.72;60.82;98208.67;1861802;77;21047;-63
2021/06/24 07:27:21;;;;;;;15.18;3.70;;;;;;;27.82;61.18;98207.83;1849366;77;21111;-60
2021/06/24 07:29:47;;;;;;;16.85;3.90;;;;;;;27.92;60.36;98207.01;1836869;77;20978;-60
2021/06/24 07:32:15;;;;;;;21.82;3.80;;;;;;;27.99;60.43;98209.77;1839147;77;20872;-60
2021/06/24 07:34:42;;;;;;;22.40;4.17;;;;;;;28.08;60.28;98215.63;1847656;77;21037;-62
2021/06/24 07:37:09;;;;;;;17.87;4.37;;;;;;;28.18;59.68;98216.76;1848730;77;20949;-62
2021/06/24 07:39:36;;;;;;;20.43;4.00;;;;;;;28.25;59.70;98221.64;1841230;77;21119;-61
2021/06/24 07:42:04;;;;;;;15.40;3.75;;;;;;;28.34;59.03;98220.61;1823396;77;21662;-61
2021/06/24 07:44:31;;;;;;;13.72;3.52;;;;;;;28.39;59.04;98217.44;1835344;77;20955;-63
2021/06/24 07:47:00;;;;;;;18.67;3.80;;;;;;;28.43;59.08;98208.55;1848372;77;21043;-60
2021/06/24 07:49:28;;;;;;;20.75;3.98;;;;;;;28.51;59.42;98212.64;1839515;78;20963;-60
2021/06/24 07:51:55;;;;;;;11.12;3.47;;;;;;;28.59;58.65;98216.94;1762904;80;21069;-60
2021/06/24 07:54:22;;;;;;;30.80;3.87;;;;;;;28.62;57.88;98212.80;1834400;77;21485;-61
2021/06/24 07:56:56;;;;;;;15.30;3.35;;;;;;;28.64;57.52;98217.30;1836660;77;20990;-60
2021/06/24 07:59:35;;;;;;;17.67;3.67;;;;;;;28.66;57.65;98215.54;1840815;77;20971;-60
2021/06/24 08:02:05;;;;;;;19.35;3.90;;;;;;;28.67;57.46;98217.88;1841048;76;21051;-60
2021/06/24 08:04:34;;;;;;;17.10;3.83;;;;;;;28.69;57.50;98222.39;1754990;79;21098;-61
2021/06/24 08:07:03;;;;;;;19.23;3.75;;;;;;;28.73;57.93;98222.38;1826822;77;21459;-61
2021/06/24 08:09:39;;;;;;;17.60;3.98;;;;;;;28.77;56.89;98224.52;1829733;77;20991;-61
2021/06/24 08:12:22;;;;;;;22.07;4.08;;;;;;;28.80;56.12;98223.70;1841648;77;20982;-60
2021/06/24 08:14:53;;;;;;;18.67;3.77;;;;;;;28.87;56.46;98218.94;1829314;77;21712;-60
2021/06/24 08:17:20;;;;;;;27.02;4.37;;;;;;;28.94;55.86;98220.84;1841728;77;21079;-61
2021/06/24 08:19:47;;;;;;;11.57;3.75;;;;;;;29.00;55.36;98222.76;1822028;77;21116;-61
2021/06/24 08:22:15;;;;;;;28.10;4.78;;;;;;;29.09;55.01;98219.52;1835312;77;21046;-61
2021/06/24 08:24:42;;;;;;;22.80;4.30;;;;;;;29.21;54.76;98217.68;1833368;77;20982;-61
2021/06/24 08:27:09;;;;;;;19.10;4.15;;;;;;;29.30;54.66;98217.98;1843599;77;21098;-62
2021/06/24 08:29:37;;;;;;;16.07;4.42;;;;;;;29.39;54.38;98214.77;1819806;77;21448;-61
2021/06/24 08:32:05;;;;;;;25.15;4.20;;;;;;;29.48;54.49;98218.63;1846698;77;20983;-61
2021/06/24 08:34:33;;;;;;;21.85;4.03;;;;;;;29.56;53.77;98219.34;1847817;77;21011;-62
2021/06/24 08:37:00;;;;;;;21.57;3.95;;;;;;;29.62;53.27;98217.69;1833769;77;21062;-61
2021/06/24 08:39:26;;;;;;;20.43;4.30;;;;;;;29.67;53.56;98212.51;1828624;77;21069;-62
2021/06/24 08:41:54;;;;;;;26.07;4.65;;;;;;;29.77;53.30;98219.90;1841144;77;21175;-62
2021/06/24 08:44:21;;;;;;;18.77;3.80;;;;;;;29.85;52.47;98221.20;1848942;77;21432;-61
2021/06/24 08:46:51;;;;;;;23.65;4.05;;;;;;;29.91;52.75;98226.47;1833913;77;21047;-62
2021/06/24 08:49:26;;;;;;;18.87;4.25;;;;;;;29.96;52.39;98227.41;1776546;80;21474;-61
2021/06/24 08:51:53;;;;;;;17.80;4.25;;;;;;;30.02;52.50;98219.63;1802745;78;20877;-62
2021/06/24 08:54:21;;;;;;;22.40;4.17;;;;;;;30.13;52.47;98218.09;1776126;80;21686;-61
2021/06/24 08:56:48;;;;;;;21.12;4.35;;;;;;;30.22;52.28;98220.54;1808256;78;21032;-63
2021/06/24 08:59:15;;;;;;;21.05;3.75;;;;;;;30.33;52.04;98224.59;1753488;80;21107;-61
2021/06/24 09:01:58;;;;;;;20.15;4.10;;;;;;;30.45;51.72;98237.84;1851690;77;20848;-60
2021/06/24 09:04:29;;;;;;;25.25;4.08;;;;;;;30.55;51.36;98236.89;1806473;78;21360;-60
2021/06/24 09:07:10;;;;;;;21.35;4.10;;;;;;;30.63;50.50;98234.23;1820350;78;20986;-63
2021/06/24 09:09:40;;;;;;;26.60;4.40;;;;;;;30.69;50.62;98238.08;1819744;78;21000;-61
2021/06/24 09:12:10;;;;;;;21.52;4.60;;;;;;;30.73;49.63;98238.83;1819595;78;21507;-61
2021/06/24 09:14:48;;;;;;;20.90;4.15;;;;;;;30.76;48.73;98236.59;1814755;78;20936;-61
2021/06/24 09:17:42;;;;;;;19.50;3.87;;;;;;;30.79;48.20;98233.59;1817248;79;21432;-64
2021/06/24 09:20:24;;;;;;;26.70;4.55;;;;;;;30.84;48.07;98242.20;1817192;79;21120;-62
2021/06/24 09:23:13;;;;;;;23.77;5.70;;;;;;;30.90;46.98;98237.78;1804378;79;21509;-64
2021/06/24 09:25:46;;;;;;;31.57;5.62;;;;;;;30.96;46.97;98241.66;1803701;79;21525;-62
2021/06/24 09:28:13;;;;;;;22.27;5.22;;;;;;;31.05;46.83;98241.91;1812295;79;21055;-65
2021/06/24 09:30:42;;;;;;;22.35;4.92;;;;;;;31.14;46.75;98233.68;1813846;79;22107;-62
2021/06/24 09:33:13;;;;;;;23.07;4.75;;;;;;;31.24;46.02;98238.23;1812688;79;21754;-62
2021/06/24 09:35:43;;;;;;;28.35;5.00;;;;;;;31.33;45.46;98231.55;1849130;77;20908;-60
2021/06/24 09:38:15;;;;;;;24.37;4.53;;;;;;;31.40;45.20;98225.89;1765706;80;20976;-61
2021/06/24 09:40:55;;;;;;;24.15;4.00;;;;;;;31.48;45.30;98231.52;1767149;79;21022;-65
2021/06/24 09:43:28;;;;;;;18.92;4.35;;;;;;;31.51;44.49;98229.30;1843868;77;21043;-61
2021/06/24 09:46:15;;;;;;;22.15;4.60;;;;;;;31.59;45.23;98227.95;1844976;77;21112;-61
2021/06/24 09:48:52;;;;;;;24.27;4.53;;;;;;;31.69;44.80;98231.13;1833646;76;20995;-62
2021/06/24 09:51:31;;;;;;;18.98;4.35;;;;;;;31.81;44.25;98233.28;1811691;77;21336;-64
2021/06/24 09:54:13;;;;;;;31.82;5.55;;;;;;;31.87;43.49;98235.72;1839942;77;21055;-62
2021/06/24 09:56:46;;;;;;;27.05;4.70;;;;;;;31.90;42.03;98226.56;1838178;77;21534;-62
2021/06/24 09:59:16;;;;;;;24.47;4.75;;;;;;;31.92;41.16;98231.67;1831161;77;21076;-62
2021/06/24 10:01:48;;;;;;;28.05;5.00;;;;;;;31.93;42.00;98228.48;1834281;77;21350;-65
2021/06/24 10:04:24;;;;;;;19.15;4.35;;;;;;;32.00;41.95;98215.91;1847804;77;20943;-61
2021/06/24 10:06:54;;;;;;;22.15;4.45;;;;;;;32.07;40.91;98217.16;1819135;77;21120;-62
2021/06/24 10:09:24;;;;;;;26.05;4.60;;;;;;;32.12;40.18;98220.81;1840576;77;20972;-61
2021/06/24 10:11:51;;;;;;;27.58;4.78;;;;;;;32.14;40.20;98226.70;1838887;77;21096;-63
2021/06/24 10:14:19;;;;;;;26.12;4.95;;;;;;;32.15;39.26;98231.65;1848843;77;20963;-61
2021/06/24 10:16:53;;;;;;;24.60;5.00;;;;;;;32.14;37.85;98233.63;1848759;77;20920;-62
2021/06/24 10:19:32;;;;;;;23.05;4.62;;;;;;;32.16;37.82;98229.83;1839837;77;20924;-61
2021/06/24 10:22:13;;;;;;;18.67;4.35;;;;;;;32.19;36.15;98228.98;1836325;78;20888;-63
2021/06/24 10:24:56;;;;;;;28.05;4.90;;;;;;;32.23;37.32;98223.34;1836402;78;20818;-60
2021/06/24 10:27:30;;;;;;;22.70;4.30;;;;;;;32.30;37.59;98215.67;1764711;80;20968;-61
2021/06/24 10:30:09;;;;;;;;;;;;;;;32.32;37.29;98214.62;1771379;80;20984;-59
2021/06/24 10:32:37;;;;;;;20.20;4.15;;;;;;;32.36;38.24;98211.80;1747934;81;20094;-65
2021/06/24 10:35:06;;;;;;;32.40;5.03;;;;;;;32.41;38.66;98212.05;1749075;80;21475;-61
2021/06/24 10:37:34;;;;;;;17.45;4.47;;;;;;;32.49;39.01;98214.66;1745736;82;21083;-65
2021/06/24 10:40:23;;;;;;;21.27;4.03;;;;;;;32.57;38.79;98213.34;1745545;82;20975;-61
2021/06/24 10:42:56;;;;;;;28.92;5.10;;;;;;;32.61;39.37;98211.25;1744465;82;20908;-62
2021/06/24 10:45:25;;;;;;;24.12;4.50;;;;;;;32.61;39.55;98214.03;1766677;80;21019;-61
2021/06/24 10:47:54;;;;;;;20.77;4.55;;;;;;;32.62;39.63;98215.60;1763886;81;20885;-61
2021/06/24 10:50:32;;;;;;;20.43;4.17;;;;;;;32.65;38.79;98218.88;1763749;81;22031;-61
2021/06/24 10:53:09;;;;;;;24.05;4.72;;;;;;;32.64;38.36;98212.58;1764904;81;20905;-62
2021/06/24 10:55:41;;;;;;;19.75;4.67;;;;;;;32.64;38.03;98220.11;1835478;78;20998;-63
2021/06/24 10:58:19;;;;;;;21.60;4.45;;;;;;;32.63;36.94;98212.98;1841252;77;20951;-59
2021/06/24 11:00:48;;;;;;;19.62;4.45;;;;;;;32.56;37.61;98217.30;1841247;78;20991;-60
2021/06/24 11:03:34;;;;;;;26.23;5.25;;;;;;;32.57;37.57;98220.27;1840907;77;21658;-62
2021/06/24 11:06:17;;;;;;;23.15;4.70;;;;;;;32.59;38.58;98222.00;1841409;77;20956;-63
2021/06/24 11:08:45;;;;;;;21.93;4.65;;;;;;;32.64;38.79;98222.88;1840777;78;21359;-62
2021/06/24 11:11:16;;;;;;;28.07;4.60;;;;;;;32.69;39.18;98212.06;1841878;77;20872;-62
2021/06/24 11:13:47;;;;;;;28.80;4.50;;;;;;;32.71;38.51;98210.23;1857985;77;20853;-60
2021/06/24 11:16:19;;;;;;;24.90;4.28;;;;;;;32.71;39.44;98209.64;1858157;77;21065;-61
2021/06/24 11:18:52;;;;;;;24.57;4.45;;;;;;;32.76;39.64;98207.73;1856366;77;20896;-62
2021/06/24 11:21:33;;;;;;;19.48;3.92;;;;;;;32.79;37.90;98211.02;1857901;77;20959;-62
2021/06/24 11:24:14;;;;;;;22.42;4.50;;;;;;;32.81;38.19;98215.52;1857978;77;20916;-62
2021/06/24 11:26:44;;;;;;;19.85;4.47;;;;;;;32.87;37.78;98211.63;1858066;77;20875;-65
2021/06/24 11:29:42;;;;;;;26.00;4.72;;;;;;;32.92;38.06;98211.12;1851674;77;21856;-60
2021/06/24 11:32:22;;;;;;;19.55;4.35;;;;;;;33.05;36.84;98212.00;1850971;77;21438;-61
2021/06/24 11:34:58;;;;;;;23.02;4.35;;;;;;;33.24;36.97;98209.73;1856632;77;20892;-64
2021/06/24 11:37:33;;;;;;;20.17;4.17;;;;;;;33.43;37.61;98211.63;1857729;77;20983;-61
2021/06/24 11:40:06;;;;;;;16.10;3.83;;;;;;;33.52;37.47;98203.44;1823797;77;20912;-60
2021/06/24 11:42:46;;;;;;;19.25;4.30;;;;;;;33.68;38.21;98193.70;1849733;77;21640;-60
2021/06/24 11:45:16;;;;;;;31.23;5.50;;;;;;;33.90;37.43;98197.27;1855223;77;20996;-63
2021/06/24 11:47:47;;;;;;;23.42;5.55;;;;;;;34.00;36.10;98195.59;1856949;77;20824;-63
2021/06/24 12:03:03;;;;;;;20.82;4.10;;;;;;;34.80;32.22;98192.99;1841562;77;21420;-62
2021/06/24 12:04:34;;;;;;;24.23;4.50;;;;;;;35.01;30.61;98190.91;1858561;77;21395;-62
2021/06/24 12:07:13;;;;;;;15.28;3.77;;;;;;;35.22;30.07;98190.04;1853151;77;20894;-61
2021/06/24 12:09:52;;;;;;;24.37;4.33;;;;;;;35.37;30.82;98191.12;1860824;77;20958;-61
2021/06/24 12:12:24;;;;;;;24.80;5.47;;;;;;;35.55;30.37;98195.48;1849717;77;21465;-62
2021/06/24 12:15:04;;;;;;;28.77;4.40;;;;;;;35.71;30.05;98190.50;1837722;77;20906;-62
2021/06/24 12:17:37;;;;;;;23.57;4.62;;;;;;;35.80;29.18;98190.42;1828374;78;20894;-63
2021/06/24 12:20:15;;;;;;;22.07;4.50;;;;;;;35.84;29.99;98179.92;1828516;78;20885;-64
2021/06/24 12:22:59;;;;;;;25.08;4.67;;;;;;;35.84;30.64;98175.12;1828289;78;21109;-63
2021/06/24 12:25:34;;;;;;;20.05;3.70;;;;;;;35.93;32.12;98169.61;1827514;78;21110;-64
2021/06/24 12:28:04;;;;;;;26.17;4.50;;;;;;;36.15;30.86;98167.62;1840433;77;21599;-63
2021/06/24 12:30:41;;;;;;;21.05;4.45;;;;;;;36.35;30.62;98165.84;1840206;77;21374;-62
2021/06/24 12:33:12;;;;;;;23.55;4.37;;;;;;;36.43;30.44;98162.16;1863492;77;20907;-62
2021/06/24 12:35:46;;;;;;;38.73;5.60;;;;;;;36.56;30.88;98165.64;1788928;80;21051;-63
2021/06/24 12:38:25;;;;;;;24.02;4.47;;;;;;;36.75;29.12;98164.47;1794366;79;21078;-61
2021/06/24 12:41:02;;;;;;;31.37;4.62;;;;;;;36.86;28.60;98171.80;1816288;79;20833;-61
2021/06/24 12:43:30;;;;;;;24.20;4.30;;;;;;;36.86;28.65;98171.80;1815551;79;21055;-62
2021/06/24 12:46:00;;;;;;;19.82;4.45;;;;;;;36.93;28.30;98170.14;1816694;79;21035;-63
2021/06/24 12:48:36;;;;;;;22.37;4.45;;;;;;;36.98;27.49;98172.33;1783285;79;21777;-63
2021/06/24 12:51:22;;;;;;;21.80;4.28;;;;;;;37.09;27.12;98177.45;1800330;79;20942;-61
2021/06/24 12:53:53;;;;;;;27.60;4.60;;;;;;;37.24;27.11;98177.78;1789103;80;20939;-62
2021/06/24 12:56:33;;;;;;;24.35;5.10;;;;;;;37.36;26.48;98182.45;1821637;78;21007;-61
2021/06/24 12:59:14;;;;;;;24.25;5.08;;;;;;;37.44;25.87;98180.94;1820469;78;20986;-61
2021/06/24 13:01:42;;;;;;;24.72;4.75;;;;;;;37.52;25.45;98176.58;1817448;79;22254;-62
2021/06/24 13:04:12;;;;;;;17.52;4.40;;;;;;;37.61;25.47;98178.00;1817445;79;21447;-62
2021/06/24 13:06:47;;;;;;;17.65;4.40;;;;;;;37.61;25.26;98171.63;1816506;79;20943;-62
2021/06/24 13:09:16;;;;;;;25.20;4.10;;;;;;;37.69;25.89;98169.44;1817628;79;20880;-60
2021/06/24 13:11:57;;;;;;;19.65;4.20;;;;;;;37.86;25.56;98167.73;1817540;79;20941;-62
2021/06/24 13:14:26;;;;;;;22.22;4.08;;;;;;;38.02;24.69;98159.78;1816715;79;21196;-63
2021/06/24 13:17:00;;;;;;;18.23;4.00;;;;;;;38.14;23.81;98167.83;1817826;79;20920;-63
2021/06/24 13:19:36;;;;;;;19.87;4.00;;;;;;;38.24;23.75;98158.17;1797211;79;20983;-62
2021/06/24 13:22:17;;;;;;;20.82;4.05;;;;;;;38.27;24.65;98161.44;1844218;77;22535;-64
2021/06/24 13:24:56;;;;;;;21.05;4.45;;;;;;;38.39;24.05;98168.11;1823695;78;20915;-63
2021/06/24 13:27:28;;;;;;;23.25;4.08;;;;;;;38.40;23.26;98167.62;1833398;77;21424;-62
2021/06/24 13:30:05;;;;;;;23.52;4.05;;;;;;;38.39;24.10;98160.49;1776781;80;20916;-61
2021/06/24 13:32:37;;;;;;;20.08;3.83;;;;;;;38.47;23.85;98160.91;1848505;77;20817;-60
2021/06/24 13:35:29;;;;;;;20.43;3.75;;;;;;;38.52;23.89;98149.86;1850820;77;21011;-62
2021/06/24 13:38:05;;;;;;;17.45;4.00;;;;;;;38.47;24.97;98143.50;1823352;78;21030;-62
2021/06/24 13:40:46;;;;;;;19.98;4.35;;;;;;;38.53;25.00;98145.82;1824556;77;21691;-62
2021/06/24 13:43:28;;;;;;;18.07;3.70;;;;;;;38.57;25.83;98142.22;1843966;77;21388;-62
2021/06/24 13:45:54;;;;;;;17.35;3.52;;;;;;;38.59;25.15;98150.91;1844397;77;21328;-62
2021/06/24 13:48:23;;;;;;;17.30;3.90;;;;;;;38.65;24.68;98147.60;1841428;78;20919;-62
2021/06/24 13:50:50;;;;;;;27.52;4.60;;;;;;;38.72;25.50;98147.31;1840914;77;21045;-63
2021/06/24 13:53:18;;;;;;;19.07;3.72;;;;;;;38.70;25.21;98135.77;1767330;80;21091;-63
2021/06/24 13:55:46;;;;;;;25.20;4.35;;;;;;;38.70;25.89;98140.61;1768520;80;20885;-63
2021/06/24 13:58:19;;;;;;;14.15;4.05;;;;;;;38.75;25.51;98143.55;1774775;80;20956;-62
2021/06/24 14:00:42;;;;;;;24.37;4.25;;;;;;;38.78;26.13;98133.42;1857159;77;21364;-63
2021/06/24 14:03:09;;;;;;;23.90;4.25;;;;;;;38.79;26.76;98135.77;1857967;77;20931;-62
2021/06/24 14:05:36;;;;;;;24.32;3.83;;;;;;;38.83;26.41;98136.36;1858306;77;21742;-62
2021/06/24 14:08:05;;;;;;;16.82;3.90;;;;;;;38.88;25.57;98131.50;1857981;77;20868;-62
2021/06/24 14:10:32;;;;;;;16.42;3.62;;;;;;;38.74;25.57;98139.21;1858037;77;21403;-62
2021/06/24 14:12:59;;;;;;;21.10;4.70;;;;;;;38.70;26.35;98134.36;1858026;77;20876;-63
2021/06/24 14:15:26;;;;;;;26.87;4.28;;;;;;;38.75;26.24;98128.15;1858138;77;20836;-62
2021/06/24 14:17:53;;;;;;;21.12;4.00;;;;;;;38.90;25.95;98126.20;1858359;77;21057;-63
2021/06/24 14:20:21;;;;;;;18.12;3.55;;;;;;;39.05;26.10;98122.68;1857660;77;20978;-62
2021/06/24 14:22:49;;;;;;;15.68;4.17;;;;;;;39.18;25.38;98126.02;1856584;77;20939;-63
2021/06/24 14:25:16;;;;;;;18.57;4.20;;;;;;;39.27;25.20;98117.55;1857518;77;20891;-64
2021/06/24 14:27:43;;;;;;;20.85;3.92;;;;;;;39.34;24.96;98116.55;1856960;77;20965;-64
2021/06/24 14:30:11;;;;;;;16.95;4.08;;;;;;;39.40;25.25;98121.66;1843717;77;21030;-62
2021/06/24 14:32:38;;;;;;;19.90;4.03;;;;;;;39.46;25.23;98118.94;1768170;80;21498;-65
2021/06/24 14:35:06;;;;;;;24.02;4.85;;;;;;;39.55;24.64;98125.23;1768762;80;20838;-64
2021/06/24 14:37:35;;;;;;;16.35;4.25;;;;;;;39.51;24.84;98122.48;1768677;80;20969;-62
2021/06/24 14:40:03;;;;;;;21.85;3.92;;;;;;;39.54;24.76;98111.72;1768662;81;20932;-63
2021/06/24 14:42:30;;;;;;;18.52;4.00;;;;;;;39.52;24.48;98101.63;1767852;81;21110;-64
2021/06/24 14:44:57;;;;;;;18.52;3.85;;;;;;;39.41;24.13;98097.97;1767275;81;21028;-63
2021/06/24 14:47:24;;;;;;;21.25;4.20;;;;;;;39.35;24.70;98094.30;1767440;81;21064;-63
2021/06/24 14:49:51;;;;;;;21.17;3.70;;;;;;;39.40;24.67;98097.84;1767288;81;21110;-64
2021/06/24 14:52:18;;;;;;;20.15;4.22;;;;;;;39.43;24.48;98089.10;1767461;81;21094;-64
2021/06/24 14:54:45;;;;;;;22.07;3.98;;;;;;;39.51;24.23;98084.03;1767433;80;21115;-64
2021/06/24 14:57:12;;;;;;;19.17;4.37;;;;;;;39.53;24.23;98068.13;1767815;81;20928;-64
